Time,TemperatureF,DewpointF,PressureIn,WindDirection,WindDirectionDegrees,WindSpeedMPH,WindSpeedGustMPH,Humidity,HourlyPrecipIn,Conditions,Clouds,dailyrainin,SoftwareType,DateUTC
2013-02-03 00:02:00,39.6,26.4,30.16,WSW,248,0.7,1.1,59,0.00,,,0.00,WUHU216HW,2013-02-03 06:02:00,
2013-02-03 00:07:00,39.4,26.6,30.16,WSW,248,0.0,1.1,60,0.00,,,0.00,WUHU216HW,2013-02-03 06:07:00,
2013-02-03 00:12:00,39.2,26.5,30.17,WSW,248,0.4,0.7,60,0.00,,,0.00,WUHU216HW,2013-02-03 06:12:00,
2013-02-03 00:17:00,39.2,26.5,30.17,WSW,248,0.0,0.4,60,0.00,,,0.00,WUHU216HW,2013-02-03 06:17:00,
2013-02-03 00:22:00,39.2,26.8,30.17,WSW,248,0.0,0.4,61,0.00,,,0.00,WUHU216HW,2013-02-03 06:22:00,
2013-02-03 00:27:00,39.2,26.8,30.17,WSW,248,0.0,0.0,61,0.00,,,0.00,WUHU216HW,2013-02-03 06:27:00,
2013-02-03 00:32:00,39.2,26.8,30.16,WSW,248,0.0,0.0,61,0.00,,,0.00,WUHU216HW,2013-02-03 06:32:00,
2013-02-03 00:37:00,39.1,26.6,30.16,WSW,248,0.0,0.0,61,0.00,,,0.00,WUHU216HW,2013-02-03 06:37:00,
2013-02-03 00:42:00,38.9,26.6,30.17,WSW,248,0.0,0.0,61,0.00,,,0.00,WUHU216HW,2013-02-03 06:42:00,
2013-02-03 00:47:00,38.9,26.6,30.16,WSW,248,0.0,0.0,61,0.00,,,0.00,WUHU216HW,2013-02-03 06:47:00,
2013-02-03 00:52:00,38.9,26.6,30.17,WSW,248,0.0,0.0,61,0.00,,,0.00,WUHU216HW,2013-02-03 06:52:00,
2013-02-03 00:57:00,38.7,26.7,30.16,WSW,248,0.0,0.0,62,0.00,,,0.00,WUHU216HW,2013-02-03 06:57:00,
2013-02-03 01:02:00,38.5,26.6,30.17,WSW,248,0.0,0.0,62,0.00,,,0.00,WUHU216HW,2013-02-03 07:02:00,
2013-02-03 01:07:00,38.5,26.6,30.17,WSW,248,0.0,0.0,62,0.00,,,0.00,WUHU216HW,2013-02-03 07:07:00,
2013-02-03 01:12:00,38.5,26.6,30.17,WSW,248,0.0,0.0,62,0.00,,,0.00,WUHU216HW,2013-02-03 07:12:00,
2013-02-03 01:17:00,38.3,26.4,30.17,WSW,248,0.0,0.0,62,0.00,,,0.00,WUHU216HW,2013-02-03 07:17:00,
2013-02-03 01:22:00,38.3,26.4,30.17,WSW,248,0.0,0.0,62,0.00,,,0.00,WUHU216HW,2013-02-03 07:22:00,
2013-02-03 01:27:00,38.3,26.8,30.17,WSW,248,0.4,0.7,63,0.00,,,0.00,WUHU216HW,2013-02-03 07:27:00,
2013-02-03 01:32:00,38.3,26.8,30.17,WSW,248,1.8,1.8,63,0.00,,,0.00,WUHU216HW,2013-02-03 07:32:00,
2013-02-03 01:37:00,38.3,26.8,30.17,WSW,248,1.1,1.8,63,0.00,,,0.00,WUHU216HW,2013-02-03 07:37:00,
2013-02-03 01:42:00,38.3,26.8,30.17,WSW,248,1.3,1.8,63,0.00,,,0.00,WUHU216HW,2013-02-03 07:42:00,
2013-02-03 01:47:00,38.5,26.9,30.17,West,270,1.3,1.8,63,0.00,,,0.00,WUHU216HW,2013-02-03 07:47:00,
2013-02-03 01:52:00,38.5,26.9,30.17,WSW,248,0.9,1.8,63,0.00,,,0.00,WUHU216HW,2013-02-03 07:52:00,
2013-02-03 01:57:00,38.5,26.6,30.17,WSW,248,0.0,1.8,62,0.00,,,0.00,WUHU216HW,2013-02-03 07:57:00,
2013-02-03 02:02:00,38.7,26.7,30.17,West,270,0.7,1.1,62,0.00,,,0.00,WUHU216HW,2013-02-03 08:02:00,
2013-02-03 02:07:00,38.7,26.7,30.17,WNW,293,1.6,1.6,62,0.00,,,0.00,WUHU216HW,2013-02-03 08:07:00,
2013-02-03 02:12:00,38.5,26.6,30.17,NW,315,1.1,1.6,62,0.00,,,0.00,WUHU216HW,2013-02-03 08:12:00,
2013-02-03 02:17:00,38.5,26.6,30.17,West,270,1.1,2.0,62,0.00,,,0.00,WUHU216HW,2013-02-03 08:17:00,
2013-02-03 02:22:00,38.5,26.2,30.17,WNW,293,1.8,2.0,61,0.00,,,0.00,WUHU216HW,2013-02-03 08:22:00,
2013-02-03 02:27:00,38.7,26.4,30.17,WNW,293,1.8,2.0,61,0.00,,,0.00,WUHU216HW,2013-02-03 08:27:00,
2013-02-03 02:32:00,38.9,26.6,30.17,WNW,293,0.7,2.0,61,0.00,,,0.00,WUHU216HW,2013-02-03 08:32:00,
2013-02-03 02:37:00,39.2,26.8,30.18,NNW,338,0.7,3.1,61,0.00,,,0.00,WUHU216HW,2013-02-03 08:37:00,
2013-02-03 02:42:00,39.2,26.8,30.17,West,270,0.4,3.4,61,0.00,,,0.00,WUHU216HW,2013-02-03 08:42:00,
2013-02-03 02:47:00,39.2,26.5,30.18,NNW,338,0.4,3.4,60,0.00,,,0.00,WUHU216HW,2013-02-03 08:47:00,
2013-02-03 02:52:00,39.2,26.5,30.18,WNW,293,2.7,3.6,60,0.00,,,0.00,WUHU216HW,2013-02-03 08:52:00,
2013-02-03 02:57:00,39.2,26.5,30.18,West,270,3.1,4.7,60,0.00,,,0.00,WUHU216HW,2013-02-03 08:57:00,
2013-02-03 03:02:00,39.2,26.5,30.18,NNW,338,3.1,4.7,60,0.00,,,0.00,WUHU216HW,2013-02-03 09:02:00,
2013-02-03 13:00:00,55.4,22.6,30.15,ESE,113,5.8,5.8,28,0.00,,,0.00,WUHU216HW,2013-02-03 19:00:00,
2013-02-03 13:05:00,55.3,22.5,30.14,SE,135,3.1,6.9,28,0.00,,,0.00,WUHU216HW,2013-02-03 19:05:00,
2013-02-03 13:10:00,55.6,21.9,30.14,SSE,158,6.3,6.9,27,0.00,,,0.00,WUHU216HW,2013-02-03 19:10:00,
2013-02-03 13:15:00,55.6,21.9,30.13,ESE,113,3.4,8.7,27,0.00,,,0.00,WUHU216HW,2013-02-03 19:15:00,
2013-02-03 13:20:00,55.6,20.0,30.13,East,90,7.4,10.7,25,0.00,,,0.00,WUHU216HW,2013-02-03 19:20:00,
2013-02-03 13:25:00,55.3,20.6,30.12,East,90,5.4,10.7,26,0.00,,,0.00,WUHU216HW,2013-02-03 19:25:00,
2013-02-03 13:30:00,55.8,22.0,30.13,ENE,68,2.7,9.8,27,0.00,,,0.00,WUHU216HW,2013-02-03 19:30:00,
2013-02-03 13:35:00,56.2,20.4,30.12,East,90,9.4,9.4,25,0.00,,,0.00,WUHU216HW,2013-02-03 19:35:00,
2013-02-03 13:40:00,56.2,22.3,30.12,SSW,203,4.7,9.4,27,0.00,,,0.00,WUHU216HW,2013-02-03 19:40:00,
2013-02-03 13:45:00,56.9,23.9,30.11,South,180,5.1,9.4,28,0.00,,,0.00,WUHU216HW,2013-02-03 19:45:00,
2013-02-03 13:50:00,57.6,24.5,30.11,ESE,113,4.3,6.5,28,0.00,,,0.00,WUHU216HW,2013-02-03 19:50:00,
2013-02-03 13:55:00,57.2,23.2,30.11,ESE,113,2.5,7.8,27,0.00,,,0.00,WUHU216HW,2013-02-03 19:55:00,
2013-02-03 14:00:00,57.1,24.0,30.10,SE,135,7.6,8.5,28,0.00,,,0.00,WUHU216HW,2013-02-03 20:00:00,
2013-02-03 14:05:00,56.5,23.6,30.10,ESE,113,7.8,9.2,28,0.00,,,0.00,WUHU216HW,2013-02-03 20:05:00,
2013-02-03 14:10:00,56.2,23.2,30.10,South,180,3.6,9.2,28,0.00,,,0.00,WUHU216HW,2013-02-03 20:10:00,
2013-02-03 14:15:00,56.3,23.4,30.09,ESE,113,7.2,10.3,28,0.00,,,0.00,WUHU216HW,2013-02-03 20:15:00,
2013-02-03 14:20:00,56.2,23.2,30.09,East,90,8.5,10.3,28,0.00,,,0.00,WUHU216HW,2013-02-03 20:20:00,
2013-02-03 14:25:00,56.5,23.6,30.08,SSW,203,2.5,9.8,28,0.00,,,0.00,WUHU216HW,2013-02-03 20:25:00,
2013-02-03 14:30:00,56.7,22.8,30.08,ESE,113,4.5,9.8,27,0.00,,,0.00,WUHU216HW,2013-02-03 20:30:00,
2013-02-03 14:35:00,56.5,21.7,30.08,East,90,11.2,11.4,26,0.00,,,0.00,WUHU216HW,2013-02-03 20:35:00,
2013-02-03 14:40:00,56.2,21.3,30.07,ESE,113,5.4,11.4,26,0.00,,,0.00,WUHU216HW,2013-02-03 20:40:00,
2013-02-03 14:45:00,56.3,22.4,30.06,South,180,3.1,11.2,27,0.00,,,0.00,WUHU216HW,2013-02-03 20:45:00,
2013-02-03 14:50:00,56.5,22.6,30.06,SSW,203,4.3,9.8,27,0.00,,,0.00,WUHU216HW,2013-02-03 20:50:00,
2013-02-03 14:55:00,56.3,20.5,30.06,SE,135,5.1,9.8,25,0.00,,,0.00,WUHU216HW,2013-02-03 20:55:00,
2013-02-03 15:00:00,56.3,21.5,30.06,SE,135,6.3,10.7,26,0.00,,,0.00,WUHU216HW,2013-02-03 21:00:00,
2013-02-03 15:05:00,56.5,22.6,30.06,ESE,113,9.2,10.7,27,0.00,,,0.00,WUHU216HW,2013-02-03 21:05:00,
2013-02-03 15:10:00,56.3,21.5,30.06,ESE,113,6.5,13.4,26,0.00,,,0.00,WUHU216HW,2013-02-03 21:10:00,
2013-02-03 15:15:00,56.2,22.3,30.05,ESE,113,5.8,13.4,27,0.00,,,0.00,WUHU216HW,2013-02-03 21:15:00,
2013-02-03 15:20:00,56.0,22.1,30.05,East,90,7.8,10.5,27,0.00,,,0.00,WUHU216HW,2013-02-03 21:20:00,
2013-02-03 15:25:00,56.0,22.1,30.05,SE,135,7.4,12.8,27,0.00,,,0.00,WUHU216HW,2013-02-03 21:25:00,
2013-02-03 15:30:00,56.0,23.0,30.05,East,90,6.5,12.8,28,0.00,,,0.00,WUHU216HW,2013-02-03 21:30:00,
2013-02-03 15:35:00,56.2,23.2,30.05,SSE,158,6.9,11.0,28,0.00,,,0.00,WUHU216HW,2013-02-03 21:35:00,
2013-02-03 15:40:00,56.2,22.3,30.05,SSE,158,3.1,11.0,27,0.00,,,0.00,WUHU216HW,2013-02-03 21:40:00,
2013-02-03 15:45:00,56.3,22.4,30.04,ESE,113,3.6,8.1,27,0.00,,,0.00,WUHU216HW,2013-02-03 21:45:00,
2013-02-03 15:50:00,56.5,22.6,30.04,SSW,203,5.4,8.3,27,0.00,,,0.00,WUHU216HW,2013-02-03 21:50:00,
2013-02-03 15:55:00,56.5,22.6,30.04,SSE,158,7.2,8.3,27,0.00,,,0.00,WUHU216HW,2013-02-03 21:55:00,
2013-02-03 16:00:00,56.3,22.4,30.04,SE,135,5.8,8.3,27,0.00,,,0.00,WUHU216HW,2013-02-03 22:00:00,
2013-02-03 16:05:00,56.3,23.4,30.03,ESE,113,4.0,7.2,28,0.00,,,0.00,WUHU216HW,2013-02-03 22:05:00,
2013-02-03 16:10:00,56.3,23.4,30.03,South,180,3.4,7.4,28,0.00,,,0.00,WUHU216HW,2013-02-03 22:10:00,
2013-02-03 16:15:00,56.3,23.4,30.03,SSE,158,8.7,9.4,28,0.00,,,0.00,WUHU216HW,2013-02-03 22:15:00,
2013-02-03 16:20:00,56.2,23.2,30.02,SE,135,4.9,9.4,28,0.00,,,0.00,WUHU216HW,2013-02-03 22:20:00,
2013-02-03 16:25:00,56.0,23.0,30.02,East,90,7.4,8.1,28,0.00,,,0.00,WUHU216HW,2013-02-03 22:25:00,
2013-02-03 16:30:00,55.8,23.0,30.02,SE,135,6.3,8.3,28,0.00,,,0.00,WUHU216HW,2013-02-03 22:30:00,
2013-02-03 16:35:00,55.6,22.8,30.01,South,180,7.6,8.3,28,0.00,,,0.00,WUHU216HW,2013-02-03 22:35:00,
2013-02-03 16:40:00,55.4,22.6,30.01,SSE,158,5.6,8.5,28,0.00,,,0.00,WUHU216HW,2013-02-03 22:40:00,
2013-02-03 16:45:00,55.3,22.5,30.01,ESE,113,3.1,8.5,28,0.00,,,0.00,WUHU216HW,2013-02-03 22:45:00,
2013-02-03 16:50:00,55.3,23.4,30.01,SSE,158,4.0,8.5,29,0.00,,,0.00,WUHU216HW,2013-02-03 22:50:00,
2013-02-03 16:55:00,55.1,23.2,30.01,South,180,4.0,8.5,29,0.00,,,0.00,WUHU216HW,2013-02-03 22:55:00,
2013-02-03 17:00:00,55.1,23.2,30.01,South,180,5.4,7.2,29,0.00,,,0.00,WUHU216HW,2013-02-03 23:00:00,
2013-02-03 17:05:00,55.1,24.2,30.01,South,180,2.5,6.5,30,0.00,,,0.00,WUHU216HW,2013-02-03 23:05:00,
2013-02-03 17:10:00,54.9,24.0,30.01,South,180,4.0,6.5,30,0.00,,,0.00,WUHU216HW,2013-02-03 23:10:00,
2013-02-03 17:15:00,54.9,24.8,30.01,SE,135,3.4,5.8,31,0.00,,,0.00,WUHU216HW,2013-02-03 23:15:00,
2013-02-03 17:20:00,54.9,24.8,30.01,SSE,158,3.8,5.8,31,0.00,,,0.00,WUHU216HW,2013-02-03 23:20:00,
2013-02-03 17:25:00,54.9,24.8,30.00,South,180,1.8,5.1,31,0.00,,,0.00,WUHU216HW,2013-02-03 23:25:00,
2013-02-03 17:30:00,54.7,25.3,30.00,SSE,158,3.8,5.1,32,0.00,,,0.00,WUHU216HW,2013-02-03 23:30:00,
2013-02-03 17:35:00,54.4,25.0,30.00,SSE,158,1.6,5.1,32,0.00,,,0.00,WUHU216HW,2013-02-03 23:35:00,
2013-02-03 17:40:00,54.4,25.0,30.00,SE,135,1.8,3.8,32,0.00,,,0.00,WUHU216HW,2013-02-03 23:40:00,
2013-02-03 17:45:00,54.5,25.8,30.00,SE,135,1.1,3.8,33,0.00,,,0.00,WUHU216HW,2013-02-03 23:45:00,
2013-02-03 17:50:00,54.4,25.7,30.00,South,180,1.3,2.7,33,0.00,,,0.00,WUHU216HW,2013-02-03 23:50:00,
2013-02-03 17:55:00,54.4,25.7,30.00,SSE,158,1.1,2.7,33,0.00,,,0.00,WUHU216HW,2013-02-03 23:55:00,
2013-02-03 18:00:00,54.5,26.6,29.99,SSW,203,1.1,2.7,34,0.00,,,0.00,WUHU216HW,2013-02-04 00:00:00,
2013-02-03 18:05:00,54.7,26.6,29.99,SSE,158,1.1,2.7,34,0.00,,,0.00,WUHU216HW,2013-02-04 00:05:00,
2013-02-03 18:10:00,54.7,26.6,29.99,SE,135,1.6,2.0,34,0.00,,,0.00,WUHU216HW,2013-02-04 00:10:00,
2013-02-03 18:15:00,54.4,26.4,29.98,ESE,113,2.9,3.4,34,0.00,,,0.00,WUHU216HW,2013-02-04 00:15:00,
2013-02-03 18:20:00,54.0,26.1,29.98,South,180,1.8,3.4,34,0.00,,,0.00,WUHU216HW,2013-02-04 00:20:00,
2013-02-03 18:25:00,53.6,25.7,29.98,SE,135,3.4,4.5,34,0.00,,,0.00,WUHU216HW,2013-02-04 00:25:00,
2013-02-03 18:30:00,52.9,25.1,29.98,SE,135,2.5,5.1,34,0.00,,,0.00,WUHU216HW,2013-02-04 00:30:00,
2013-02-03 18:35:00,52.6,24.9,29.98,SE,135,4.0,5.1,34,0.00,,,0.00,WUHU216HW,2013-02-04 00:35:00,
2013-02-03 18:40:00,52.4,24.7,29.98,SE,135,1.8,4.0,34,0.00,,,0.00,WUHU216HW,2013-02-04 00:40:00,
2013-02-03 18:45:00,52.2,24.5,29.98,SSE,158,2.0,4.0,34,0.00,,,0.00,WUHU216HW,2013-02-04 00:45:00,
2013-02-03 18:50:00,51.8,24.8,29.97,SE,135,2.0,3.1,35,0.00,,,0.00,WUHU216HW,2013-02-04 00:50:00,
2013-02-03 18:55:00,51.7,25.4,29.98,ESE,113,1.8,3.1,36,0.00,,,0.00,WUHU216HW,2013-02-04 00:55:00,
2013-02-03 19:00:00,51.7,25.4,29.97,SSE,158,1.1,2.5,36,0.00,,,0.00,WUHU216HW,2013-02-04 01:00:00,
2013-02-03 19:05:00,51.7,25.4,29.97,SSE,158,0.9,2.2,36,0.00,,,0.00,WUHU216HW,2013-02-04 01:05:00,
2013-02-03 19:10:00,51.5,25.9,29.97,SE,135,1.1,1.8,37,0.00,,,0.00,WUHU216HW,2013-02-04 01:10:00,
2013-02-03 19:15:00,51.5,25.9,29.97,SE,135,2.5,2.5,37,0.00,,,0.00,WUHU216HW,2013-02-04 01:15:00,
2013-02-03 19:16:00,51.5,25.9,29.96,SE,135,2.9,3.6,37,0.00,,,0.00,WUHU216HW,2013-02-04 01:16:00,
2013-02-03 19:22:00,51.5,25.9,29.96,SSE,158,1.3,3.6,37,0.00,,,0.00,WUHU216HW,2013-02-04 01:22:00,
2013-02-03 19:28:00,51.3,25.8,29.96,SE,135,2.5,3.4,37,0.00,,,0.00,WUHU216HW,2013-02-04 01:28:00,
2013-02-03 19:43:00,50.9,26.1,29.96,South,180,4.0,5.4,38,0.00,,,0.00,WUHU216HW,2013-02-04 01:43:00,
2013-02-03 19:48:00,50.9,26.1,29.96,SSE,158,4.5,6.3,38,0.00,,,0.00,WUHU216HW,2013-02-04 01:48:00,
2013-02-03 19:53:00,50.9,26.1,29.96,SE,135,4.0,6.3,38,0.00,,,0.00,WUHU216HW,2013-02-04 01:53:00,
2013-02-03 19:58:00,50.9,26.1,29.95,ESE,113,4.0,6.0,38,0.00,,,0.00,WUHU216HW,2013-02-04 01:58:00,
2013-02-03 20:03:00,50.9,25.4,29.95,SE,135,4.3,6.3,37,0.00,,,0.00,WUHU216HW,2013-02-04 02:03:00,
2013-02-03 20:08:00,51.1,25.6,29.95,South,180,2.9,6.3,37,0.00,,,0.00,WUHU216HW,2013-02-04 02:08:00,
2013-02-03 20:13:00,51.1,25.6,29.95,SE,135,6.3,6.3,37,0.00,,,0.00,WUHU216HW,2013-02-04 02:13:00,
2013-02-03 20:18:00,51.1,25.6,29.95,SE,135,5.4,6.3,37,0.00,,,0.00,WUHU216HW,2013-02-04 02:18:00,
2013-02-03 20:23:00,51.1,25.6,29.95,ESE,113,5.8,6.3,37,0.00,,,0.00,WUHU216HW,2013-02-04 02:23:00,
2013-02-03 20:28:00,51.1,25.6,29.95,SSW,203,2.9,5.8,37,0.00,,,0.00,WUHU216HW,2013-02-04 02:28:00,
2013-02-03 20:33:00,51.1,25.6,29.94,South,180,3.1,6.9,37,0.00,,,0.00,WUHU216HW,2013-02-04 02:33:00,
2013-02-03 20:38:00,50.9,25.4,29.94,ESE,113,4.0,7.6,37,0.00,,,0.00,WUHU216HW,2013-02-04 02:38:00,
2013-02-03 20:43:00,50.9,25.4,29.94,ESE,113,9.2,9.2,37,0.00,,,0.00,WUHU216HW,2013-02-04 02:43:00,
2013-02-03 20:48:00,50.9,25.4,29.94,South,180,3.4,9.2,37,0.00,,,0.00,WUHU216HW,2013-02-04 02:48:00,
2013-02-03 20:53:00,50.9,25.4,29.93,ESE,113,4.0,9.2,37,0.00,,,0.00,WUHU216HW,2013-02-04 02:53:00,
2013-02-03 20:58:00,50.9,25.4,29.93,South,180,5.4,6.9,37,0.00,,,0.00,WUHU216HW,2013-02-04 02:58:00,
2013-02-03 21:03:00,50.8,25.2,29.93,SE,135,3.8,7.6,37,0.00,,,0.00,WUHU216HW,2013-02-04 03:03:00,
2013-02-03 21:08:00,50.8,25.2,29.93,SSE,158,6.3,7.6,37,0.00,,,0.00,WUHU216HW,2013-02-04 03:08:00,
2013-02-03 21:13:00,50.8,25.2,29.92,SSE,158,4.0,6.3,37,0.00,,,0.00,WUHU216HW,2013-02-04 03:13:00,
2013-02-03 21:18:00,50.8,25.2,29.92,SSE,158,5.4,7.2,37,0.00,,,0.00,WUHU216HW,2013-02-04 03:18:00,
2013-02-03 21:23:00,50.6,25.7,29.92,SE,135,4.7,8.1,38,0.00,,,0.00,WUHU216HW,2013-02-04 03:23:00,
2013-02-03 21:28:00,50.4,25.6,29.92,SE,135,6.7,9.2,38,0.00,,,0.00,WUHU216HW,2013-02-04 03:28:00,
2013-02-03 21:33:00,50.4,25.6,29.91,SSE,158,6.3,9.2,38,0.00,,,0.00,WUHU216HW,2013-02-04 03:33:00,
2013-02-03 21:38:00,50.4,25.6,29.91,ESE,113,2.9,8.5,38,0.00,,,0.00,WUHU216HW,2013-02-04 03:38:00,
2013-02-03 21:43:00,50.4,25.6,29.91,SE,135,6.9,8.5,38,0.00,,,0.00,WUHU216HW,2013-02-04 03:43:00,
2013-02-03 21:48:00,50.4,25.6,29.91,SE,135,4.5,8.9,38,0.00,,,0.00,WUHU216HW,2013-02-04 03:48:00,
2013-02-03 21:53:00,50.2,25.5,29.91,ESE,113,6.5,9.4,38,0.00,,,0.00,WUHU216HW,2013-02-04 03:53:00,
2013-02-03 21:58:00,50.2,25.5,29.91,SE,135,6.0,9.4,38,0.00,,,0.00,WUHU216HW,2013-02-04 03:58:00,
2013-02-03 22:03:00,50.2,25.5,29.90,SE,135,3.6,8.1,38,0.00,,,0.00,WUHU216HW,2013-02-04 04:03:00,
2013-02-03 22:08:00,50.2,25.5,29.90,SSE,158,3.8,7.6,38,0.00,,,0.00,WUHU216HW,2013-02-04 04:08:00,